All Spectrum Aviation - Van Nuys Airport - KVNY

HOME

Condor Squadron KVNY Webcam

Visit our Electronics Store

Condor Squadron Webcam - Van Nuys Airport - KVNY
Picture taken: Sat, 28 Nov 2020 20:50:42 -0800
YouTube Channel!    Latest Timelapse Movie    Full Size Image    Regular Size Image    

2020/11/29 03:51 KVNY 290351Z 00000KT 10SM CLR 16/M11 A3011 RMK AO2 SLP193 T01561106

HOME

Condor Squadron KVNY Webcam

Visit our Electronics Store